Triplet, Virginia
Current Conditions -  °F | °C
As of 12:35 PM on Wednesday 26 Nov 2014 (Local Time) from KLVL Reporting Station
Overcast Overcast  
Wind Chill: 37°   Ceiling: 800
Heat Index: 42°   Visibility: 10mi
Dew Point: 41°   Wind: 7mph
Humidity: 95%   Direction: 360°N
Pressure: 29.86"   Gusts: NA
Location:  36.6987°N, 77.8207°W
Report Text: KLVL 261735Z AUTO 36006KT 320V030 10SM OVC008 06/05 A2986 RMK AO1 T00550048
Loading
Personal Weather Stations






























Interactive Weather Map New forecast layout! Learn more

10-Day Weather Forecast

Advertisements
Track Severe Weather on mobile